createdAt,value
2019-01-25T00:03:09.898Z,79.77
2019-01-25T00:06:11.596Z,79.48
2019-01-25T00:09:16.855Z,79.47
2019-01-25T00:12:22.005Z,79.39
2019-01-25T00:15:27.344Z,78.81
2019-01-25T00:18:32.600Z,79.65
2019-01-25T00:21:37.845Z,80.32
2019-01-25T00:24:43.868Z,80.51
2019-01-25T00:27:49.026Z,80.81
2019-01-25T00:30:54.228Z,80.34
2019-01-25T00:33:59.361Z,80.13
2019-01-25T00:37:04.674Z,79.89
2019-01-25T00:40:12.084Z,80.00
2019-01-25T00:43:18.755Z,79.25
2019-01-25T00:46:23.923Z,79.55
2019-01-25T00:49:29.910Z,78.08
2019-01-25T00:52:35.041Z,78.61
2019-01-25T00:55:40.209Z,79.22
2019-01-25T00:58:45.345Z,79.59
2019-01-25T01:01:50.542Z,79.71
2019-01-25T01:04:55.712Z,79.35
2019-01-25T01:08:00.862Z,79.23
2019-01-25T01:11:06.040Z,79.03
2019-01-25T01:14:11.170Z,79.60
2019-01-25T01:17:16.442Z,79.94
2019-01-25T01:20:21.958Z,79.76
2019-01-25T01:23:27.133Z,79.75
2019-01-25T01:26:32.265Z,79.67
2019-01-25T01:29:37.431Z,79.43
2019-01-25T01:32:42.550Z,78.68
2019-01-25T01:35:53.307Z,79.33
2019-01-25T01:38:58.397Z,80.05
2019-01-25T01:42:03.604Z,79.81
2019-01-25T01:45:08.831Z,79.46
2019-01-25T01:48:13.953Z,79.08
2019-01-25T01:51:19.098Z,78.82
2019-01-25T01:54:24.298Z,78.95
2019-01-25T01:57:29.447Z,78.88
2019-01-25T02:00:34.676Z,79.67
2019-01-25T02:03:39.838Z,80.21
2019-01-25T02:06:45.079Z,79.61
2019-01-25T02:09:50.224Z,79.54
2019-01-25T02:12:55.411Z,79.40
2019-01-25T02:16:00.515Z,79.27
2019-01-25T02:19:06.084Z,78.90
2019-01-25T02:22:11.201Z,79.01
2019-01-25T02:25:16.599Z,79.54
2019-01-25T02:28:21.672Z,79.81
2019-01-25T02:31:26.977Z,80.14
2019-01-25T02:34:32.173Z,79.86
2019-01-25T02:37:37.315Z,80.20
2019-01-25T02:40:42.448Z,80.45
2019-01-25T02:43:47.594Z,80.31
2019-01-25T02:46:52.748Z,80.46
2019-01-25T02:49:57.881Z,80.62
2019-01-25T02:53:03.933Z,80.70
2019-01-25T02:56:09.351Z,79.49
2019-01-25T02:59:14.494Z,78.99
2019-01-25T03:02:19.578Z,79.51
2019-01-25T03:05:25.650Z,79.61
2019-01-25T03:08:30.768Z,79.70
2019-01-25T03:11:35.936Z,79.92
2019-01-25T03:14:41.020Z,79.79
2019-01-25T03:17:47.343Z,79.45
2019-01-25T03:20:52.498Z,79.21
2019-01-25T03:23:57.623Z,78.86
2019-01-25T03:27:02.743Z,78.93
2019-01-25T03:30:09.639Z,79.04
2019-01-25T03:33:14.700Z,79.29
2019-01-25T03:36:19.802Z,78.64
2019-01-25T03:39:24.970Z,78.84
2019-01-25T03:42:30.077Z,79.17
2019-01-25T03:45:35.196Z,78.54
2019-01-25T03:48:40.282Z,78.67
2019-01-25T03:51:45.435Z,78.26
2019-01-25T03:54:50.555Z,78.52
2019-01-25T03:57:55.669Z,78.89
2019-01-25T04:01:00.768Z,78.54
2019-01-25T04:04:06.045Z,77.87
2019-01-25T04:07:11.151Z,77.64
2019-01-25T04:10:21.158Z,78.04
2019-01-25T04:13:26.291Z,78.27
2019-01-25T04:16:31.342Z,78.49
2019-01-25T04:19:36.485Z,78.32
2019-01-25T04:22:41.612Z,78.33
2019-01-25T04:25:46.748Z,77.63
2019-01-25T04:28:51.857Z,78.16
2019-01-25T04:31:56.971Z,77.91
2019-01-25T04:35:02.078Z,77.82
2019-01-25T04:38:07.238Z,78.50
2019-01-25T04:41:12.360Z,78.68
2019-01-25T04:44:17.569Z,78.32
2019-01-25T04:47:28.526Z,77.96
2019-01-25T04:50:33.647Z,78.02
2019-01-25T04:53:38.856Z,78.29
2019-01-25T04:56:44.033Z,78.09
2019-01-25T04:59:49.218Z,78.48
2019-01-25T05:02:58.958Z,78.47
2019-01-25T05:06:04.742Z,77.97
2019-01-25T05:09:10.200Z,78.06
2019-01-25T05:12:15.360Z,78.71
2019-01-25T05:15:20.439Z,78.71
2019-01-25T05:18:25.571Z,78.46
2019-01-25T05:21:30.714Z,79.51
2019-01-25T05:24:35.822Z,79.37
2019-01-25T05:27:40.954Z,79.30
2019-01-25T05:30:54.680Z,78.85
2019-01-25T05:33:59.790Z,79.29
2019-01-25T05:37:09.352Z,79.10
2019-01-25T05:40:21.016Z,79.66
2019-01-25T05:43:26.253Z,79.07
2019-01-25T05:46:31.389Z,79.44
2019-01-25T05:49:36.606Z,79.39
2019-01-25T05:52:41.728Z,79.68
2019-01-25T05:55:46.879Z,78.68
2019-01-25T05:58:52.048Z,78.11
2019-01-25T06:01:57.233Z,78.62
2019-01-25T06:05:02.339Z,78.84
2019-01-25T06:08:31.975Z,79.08
2019-01-25T06:11:39.239Z,79.00
2019-01-25T06:14:44.419Z,79.12
2019-01-25T06:17:49.559Z,79.15
2019-01-25T06:20:56.247Z,79.35
2019-01-25T06:24:01.344Z,79.55
2019-01-25T06:27:06.476Z,79.88
2019-01-25T06:30:13.724Z,79.83
2019-01-25T06:33:18.898Z,78.55
2019-01-25T06:36:23.972Z,78.85
2019-01-25T06:39:29.162Z,79.65
2019-01-25T06:42:34.264Z,78.84
2019-01-25T06:45:39.421Z,78.45
2019-01-25T06:48:44.641Z,77.96
2019-01-25T06:51:49.789Z,77.67
2019-01-25T06:54:54.909Z,77.83
2019-01-25T06:58:31.247Z,77.54
2019-01-25T07:01:55.193Z,77.46
2019-01-25T07:05:00.450Z,77.49
2019-01-25T07:08:05.647Z,78.78
2019-01-25T07:11:10.839Z,78.99
2019-01-25T07:14:15.977Z,78.47
2019-01-25T07:17:22.331Z,78.26
2019-01-25T07:20:27.468Z,78.57
2019-01-25T07:23:32.646Z,78.45
2019-01-25T07:26:37.764Z,78.48
2019-01-25T07:29:42.936Z,78.45
2019-01-25T07:32:48.098Z,78.65
2019-01-25T07:35:53.299Z,78.45
2019-01-25T07:38:58.460Z,77.72
2019-01-25T07:42:03.641Z,78.27
2019-01-25T07:45:08.813Z,78.31
2019-01-25T07:48:13.989Z,77.68
2019-01-25T07:51:19.300Z,77.82
2019-01-25T07:54:24.485Z,77.56
2019-01-25T07:57:29.653Z,77.77
2019-01-25T08:00:34.796Z,77.34
2019-01-25T08:03:39.983Z,77.12
2019-01-25T08:06:45.133Z,76.96
2019-01-25T08:09:50.315Z,76.82
2019-01-25T08:12:55.455Z,76.16
2019-01-25T08:16:00.759Z,75.92
2019-01-25T08:19:05.921Z,75.17
2019-01-25T08:22:11.093Z,74.12
2019-01-25T08:25:16.426Z,73.95
2019-01-25T08:28:21.571Z,73.97
2019-01-25T08:31:26.823Z,74.23
2019-01-25T08:34:31.949Z,74.17
2019-01-25T08:37:37.096Z,73.39
2019-01-25T08:40:42.242Z,72.26
2019-01-25T08:43:47.310Z,72.86
2019-01-25T08:46:52.507Z,73.65
2019-01-25T08:49:58.640Z,73.69
2019-01-25T08:53:03.763Z,73.78
2019-01-25T08:56:09.126Z,73.47
2019-01-25T08:59:14.195Z,73.35
2019-01-25T09:02:24.828Z,72.91
2019-01-25T09:05:29.983Z,72.92
2019-01-25T09:08:35.136Z,72.68
2019-01-25T09:11:40.353Z,73.10
2019-01-25T09:14:45.471Z,72.72
2019-01-25T09:17:50.627Z,72.71
2019-01-25T09:20:55.807Z,72.37
2019-01-25T09:24:01.010Z,72.29
2019-01-25T09:27:06.312Z,71.37
2019-01-25T09:30:14.398Z,71.33
2019-01-25T09:33:19.607Z,71.37
2019-01-25T09:36:24.809Z,71.98
2019-01-25T09:39:29.996Z,71.36
2019-01-25T09:42:35.183Z,70.43
2019-01-25T09:45:40.410Z,69.29
2019-01-25T09:48:45.596Z,69.75
2019-01-25T09:51:50.726Z,68.55
2019-01-25T09:54:55.875Z,69.14
2019-01-25T09:58:03.353Z,68.51
2019-01-25T10:01:10.454Z,68.85
2019-01-25T10:04:15.739Z,68.72
2019-01-25T10:07:20.891Z,67.85
2019-01-25T10:10:26.038Z,66.35
2019-01-25T10:13:31.181Z,64.28
2019-01-25T10:16:36.370Z,64.67
2019-01-25T10:19:41.522Z,64.02
2019-01-25T10:22:46.684Z,64.34
2019-01-25T10:25:51.829Z,64.11
2019-01-25T10:28:57.074Z,62.34
2019-01-25T10:32:02.222Z,63.83
2019-01-25T10:35:09.067Z,62.15
2019-01-25T10:38:14.311Z,61.79
2019-01-25T10:41:19.555Z,63.01
2019-01-25T10:44:24.691Z,63.92
2019-01-25T10:47:29.866Z,63.20
2019-01-25T10:50:34.956Z,63.30
2019-01-25T10:53:40.094Z,62.11
2019-01-25T10:56:45.333Z,61.46
2019-01-25T10:59:50.429Z,62.53
2019-01-25T11:02:58.313Z,62.91
2019-01-25T11:06:02.381Z,61.56
2019-01-25T11:09:10.118Z,61.77
2019-01-25T11:12:15.228Z,61.31
2019-01-25T11:15:22.060Z,60.77
2019-01-25T11:18:27.238Z,61.32
2019-01-25T11:21:37.415Z,62.66
2019-01-25T11:24:40.222Z,62.89
2019-01-25T11:27:46.410Z,63.73
2019-01-25T11:30:51.671Z,63.76
2019-01-25T11:33:56.830Z,63.22
2019-01-25T11:37:02.010Z,62.51
2019-01-25T11:40:15.255Z,62.07
2019-01-25T11:43:20.435Z,64.18
2019-01-25T11:46:25.530Z,63.53
2019-01-25T11:49:30.689Z,63.24
2019-01-25T11:52:35.796Z,61.97
2019-01-25T11:55:40.922Z,63.84
2019-01-25T11:58:46.142Z,64.84
2019-01-25T12:01:51.259Z,64.62
2019-01-25T12:04:56.423Z,64.55
2019-01-25T12:08:01.649Z,64.05
2019-01-25T12:11:06.848Z,64.86
2019-01-25T12:14:11.995Z,63.04
2019-01-25T12:17:17.125Z,64.02
2019-01-25T12:20:24.462Z,63.34
2019-01-25T12:23:29.625Z,64.07
2019-01-25T12:26:34.784Z,65.18
2019-01-25T12:29:39.922Z,64.33
2019-01-25T12:32:45.094Z,65.77
2019-01-25T12:35:50.304Z,65.76
2019-01-25T12:38:55.542Z,65.37
2019-01-25T12:42:00.680Z,65.31
2019-01-25T12:45:07.391Z,65.46
2019-01-25T12:48:13.631Z,65.06
2019-01-25T12:51:29.066Z,65.33
2019-01-25T12:54:35.257Z,65.77
2019-01-25T12:57:40.452Z,65.78
2019-01-25T13:00:45.652Z,65.81
2019-01-25T13:03:50.783Z,67.22
2019-01-25T13:06:55.891Z,67.89
2019-01-25T13:10:01.103Z,68.49
2019-01-25T13:13:07.451Z,67.09
2019-01-25T13:16:12.595Z,67.77
2019-01-25T13:19:17.796Z,67.55
2019-01-25T13:22:23.000Z,67.72
2019-01-25T13:25:28.139Z,67.36
2019-01-25T13:28:33.305Z,66.85
2019-01-25T13:31:38.527Z,67.82
2019-01-25T13:34:43.697Z,67.77
2019-01-25T13:37:48.875Z,67.48
2019-01-25T13:40:54.105Z,68.60
2019-01-25T13:43:59.251Z,69.21
2019-01-25T13:47:04.413Z,69.30
2019-01-25T13:50:12.012Z,69.74
2019-01-25T13:53:17.143Z,69.04
2019-01-25T13:56:22.527Z,69.19
2019-01-25T13:59:27.663Z,71.89
2019-01-25T14:02:34.165Z,72.60
2019-01-25T14:05:39.408Z,72.57
2019-01-25T14:08:44.590Z,72.53
2019-01-25T14:11:49.737Z,71.94
2019-01-25T14:14:54.897Z,71.32
2019-01-25T14:18:00.161Z,69.77
2019-01-25T14:21:05.612Z,71.57
2019-01-25T14:24:10.790Z,69.93
2019-01-25T14:27:15.910Z,70.21
2019-01-25T14:30:47.645Z,70.96
2019-01-25T14:33:52.867Z,72.05
2019-01-25T14:36:58.112Z,70.32
2019-01-25T14:40:03.280Z,71.37
2019-01-25T14:43:08.513Z,71.59
2019-01-25T14:46:13.765Z,71.71
2019-01-25T14:49:18.926Z,70.31
2019-01-25T14:52:24.111Z,72.15
2019-01-25T14:55:29.228Z,73.05
2019-01-25T14:58:34.427Z,73.77
2019-01-25T15:01:39.625Z,73.84
2019-01-25T15:04:44.803Z,74.15
2019-01-25T15:07:49.947Z,75.44
2019-01-25T15:10:55.099Z,75.04
2019-01-25T15:14:02.355Z,75.00
2019-01-25T15:17:07.178Z,75.79
2019-01-25T15:20:18.550Z,76.70
2019-01-25T15:23:24.929Z,76.78
2019-01-25T15:26:30.046Z,76.31
2019-01-25T15:29:35.189Z,76.89
2019-01-25T15:32:41.380Z,77.09
2019-01-25T15:35:46.619Z,77.34
2019-01-25T15:38:51.949Z,77.47
2019-01-25T15:41:57.238Z,76.63
2019-01-25T15:45:02.371Z,77.53
2019-01-25T15:48:07.595Z,77.47
2019-01-25T15:51:12.753Z,77.89
2019-01-25T15:54:17.930Z,78.13
2019-01-25T15:57:23.012Z,78.26
2019-01-25T16:00:29.684Z,78.72
2019-01-25T16:03:34.901Z,78.84
2019-01-25T16:06:40.061Z,78.87
2019-01-25T16:09:45.193Z,79.06
2019-01-25T16:12:51.065Z,79.30
2019-01-25T16:15:56.195Z,79.55
2019-01-25T16:19:01.353Z,79.52
2019-01-25T16:22:06.504Z,79.96
2019-01-25T16:25:14.504Z,79.60
2019-01-25T16:28:19.627Z,79.69
2019-01-25T16:31:24.749Z,79.94
2019-01-25T16:34:29.859Z,80.15
2019-01-25T16:37:35.189Z,80.54
2019-01-25T16:40:40.375Z,81.04
2019-01-25T16:43:45.552Z,81.16
2019-01-25T16:46:50.682Z,81.17
2019-01-25T16:49:55.832Z,81.37
2019-01-25T16:53:00.954Z,81.72
2019-01-25T16:56:06.289Z,81.89
2019-01-25T16:59:11.406Z,82.31
2019-01-25T17:02:16.521Z,82.55
2019-01-25T17:05:21.886Z,82.14
2019-01-25T17:08:27.173Z,82.13
2019-01-25T17:11:32.313Z,82.11
2019-01-25T17:14:37.517Z,81.82
2019-01-25T17:17:42.907Z,81.60
2019-01-25T17:20:48.098Z,81.65
2019-01-25T17:23:53.244Z,81.41
2019-01-25T17:26:58.381Z,81.78
2019-01-25T17:30:03.490Z,82.32
2019-01-25T17:33:08.716Z,82.67
2019-01-25T17:36:14.025Z,82.91
2019-01-25T17:39:19.177Z,82.77
2019-01-25T17:42:24.310Z,82.82
2019-01-25T17:45:29.451Z,82.63
2019-01-25T17:48:34.603Z,82.72
2019-01-25T17:51:39.949Z,82.82
2019-01-25T17:54:45.149Z,82.95
2019-01-25T17:57:50.368Z,83.05
2019-01-25T18:00:57.080Z,82.67
2019-01-25T18:04:03.539Z,82.19
2019-01-25T18:07:08.737Z,82.66
2019-01-25T18:10:16.762Z,83.22
2019-01-25T18:13:22.095Z,83.36
2019-01-25T18:16:27.218Z,83.24
2019-01-25T18:19:32.447Z,83.14
2019-01-25T18:22:37.669Z,82.51
2019-01-25T18:25:48.846Z,82.55
2019-01-25T18:29:13.177Z,82.37
2019-01-25T18:32:18.417Z,82.30
2019-01-25T18:35:23.619Z,82.90
2019-01-25T18:38:28.732Z,82.61
2019-01-25T18:41:35.385Z,82.63
2019-01-25T18:44:40.656Z,82.14
2019-01-25T18:47:45.816Z,81.03
2019-01-25T18:50:51.135Z,80.96
2019-01-25T18:53:56.337Z,81.65
2019-01-25T18:57:01.636Z,81.30
2019-01-25T19:00:08.785Z,80.91
2019-01-25T19:03:14.161Z,81.41
2019-01-25T19:06:19.364Z,79.61
2019-01-25T19:09:24.571Z,80.12
2019-01-25T19:12:29.726Z,80.01
2019-01-25T19:15:34.873Z,80.31
2019-01-25T19:18:40.064Z,80.45
2019-01-25T19:21:45.216Z,79.85
2019-01-25T19:24:50.445Z,79.92
2019-01-25T19:27:55.698Z,80.44
2019-01-25T19:31:00.853Z,80.10
2019-01-25T19:34:06.041Z,79.50
2019-01-25T19:37:11.251Z,79.88
2019-01-25T19:40:17.426Z,80.25
2019-01-25T19:43:22.621Z,79.97
2019-01-25T19:46:27.819Z,80.02
2019-01-25T19:49:32.980Z,79.21
2019-01-25T19:52:38.241Z,79.17
2019-01-25T19:55:43.569Z,79.37
2019-01-25T19:58:48.732Z,79.46
2019-01-25T20:01:53.903Z,79.79
2019-01-25T20:04:59.114Z,79.59
2019-01-25T20:08:04.895Z,79.59
2019-01-25T20:11:10.071Z,79.75
2019-01-25T20:14:15.281Z,80.19
2019-01-25T20:17:20.433Z,79.15
2019-01-25T20:20:27.766Z,79.60
2019-01-25T20:23:32.912Z,80.12
2019-01-25T20:26:38.133Z,80.94
2019-01-25T20:29:43.393Z,81.79
2019-01-25T20:32:48.672Z,82.53
2019-01-25T20:35:53.955Z,83.30
2019-01-25T20:38:59.667Z,83.83
2019-01-25T20:42:04.888Z,84.54
2019-01-25T20:45:19.018Z,85.02
2019-01-25T20:48:24.212Z,85.39
2019-01-25T20:51:29.408Z,86.40
2019-01-25T20:54:34.589Z,87.30
2019-01-25T20:57:39.854Z,88.09
2019-01-25T21:00:45.315Z,88.85
2019-01-25T21:03:50.522Z,89.42
2019-01-25T21:06:55.889Z,90.15
2019-01-25T21:10:01.032Z,90.42
2019-01-25T21:13:06.627Z,90.94
2019-01-25T21:16:11.761Z,91.41
2019-01-25T21:19:17.079Z,91.79
2019-01-25T21:22:22.296Z,92.11
2019-01-25T21:25:27.562Z,92.48
2019-01-25T21:28:32.759Z,92.81
2019-01-25T21:31:37.874Z,93.26
2019-01-25T21:34:44.539Z,93.51
2019-01-25T21:37:50.098Z,93.81
2019-01-25T21:40:55.443Z,93.78
2019-01-25T21:44:00.588Z,94.00
2019-01-25T21:47:06.072Z,94.09
2019-01-25T21:50:12.880Z,93.93
2019-01-25T21:53:18.089Z,93.97
2019-01-25T21:56:23.264Z,93.92
2019-01-25T21:59:28.473Z,94.24
2019-01-25T22:02:33.690Z,94.37
2019-01-25T22:05:38.811Z,94.57
2019-01-25T22:08:43.902Z,94.73
2019-01-25T22:11:49.071Z,94.57
2019-01-25T22:14:54.205Z,94.33
2019-01-25T22:17:59.412Z,94.57
2019-01-25T22:21:04.698Z,94.47
2019-01-25T22:24:09.917Z,94.66
2019-01-25T22:27:15.151Z,94.79
2019-01-25T22:30:21.936Z,94.71
2019-01-25T22:33:27.071Z,94.73
2019-01-25T22:36:32.303Z,94.86
2019-01-25T22:39:37.462Z,95.02
2019-01-25T22:42:42.644Z,95.04
2019-01-25T22:45:47.827Z,94.81
2019-01-25T22:48:52.998Z,94.93
2019-01-25T22:51:58.230Z,95.35
2019-01-25T22:55:03.484Z,94.68
2019-01-25T22:58:08.590Z,94.96
2019-01-25T23:01:21.225Z,95.11
2019-01-25T23:05:11.730Z,94.79
2019-01-25T23:08:17.105Z,95.13
2019-01-25T23:11:22.294Z,95.29
2019-01-25T23:14:27.564Z,95.37
2019-01-25T23:17:32.752Z,95.60
2019-01-25T23:20:37.886Z,95.76
2019-01-25T23:23:43.011Z,96.38
2019-01-25T23:26:48.098Z,96.35
2019-01-25T23:29:53.268Z,96.02
2019-01-25T23:32:58.490Z,96.25
2019-01-25T23:36:03.998Z,96.15
2019-01-25T23:39:10.973Z,96.13
2019-01-25T23:42:16.338Z,96.20
2019-01-25T23:45:21.567Z,95.72
2019-01-25T23:48:26.696Z,95.72
2019-01-25T23:51:31.854Z,95.32
2019-01-25T23:54:36.951Z,94.60
2019-01-25T23:57:42.103Z,94.71
